Aviation Digital Data Service (ADDS)

Output produced by TAFs form (2341 UTC 18 July 2018)
found at http://www.aviationweather.gov/adds/tafs/
 
RJSK 182330Z VRB02KT 6000 FEW001 SCT002 BKN015 23/22 Q1012 RMK 1ST001 3ST002 6CU015 A2990
TAF RJSK 182318Z 1900/2006 27005KT 9999 FEW010 SCT020 
     TEMPO 1900/1902 4000 BR FEW005 BKN008 BKN015 
     BECMG 1912/1915 14004KT 
     TEMPO 1915/2000 1500 BR FEW001 BKN003 BKN005 
     BECMG 2000/2003 28008KT